Time;durP1;ratioP1;P1;durP2;ratioP2;P2;SDS_P1;SDS_P2;PMS_P1;PMS_P2;Temp;Humidity;BMP_temperature;BMP_pressure;BME280_temperature;BME280_humidity;BME280_pressure;Samples;Min_cycle;Max_cycle;Signal;HPM_P1;HPM_P2
2023/01/11 00:01:59;;;;;;;9.80;6.13;;;9.80;1.00;;;;;;4993307;28;20034;-48
2023/01/11 00:04:28;;;;;;;8.63;5.97;;;9.70;1.00;;;;;;4993012;28;20077;-49
2023/01/11 00:06:56;;;;;;;10.70;6.13;;;9.80;1.00;;;;;;4992976;28;20576;-48
2023/01/11 00:09:22;;;;;;;10.30;6.60;;;9.80;1.00;;;;;;4993015;28;20081;-48
2023/01/11 00:11:49;;;;;;;10.77;6.30;;;9.80;1.00;;;;;;4992767;28;20045;-48
2023/01/11 00:14:16;;;;;;;8.33;6.73;;;9.80;1.00;;;;;;4994131;28;20031;-48
2023/01/11 00:16:41;;;;;;;9.77;6.27;;;9.80;1.00;;;;;;4996631;28;20030;-48
2023/01/11 00:19:07;;;;;;;11.10;6.80;;;9.80;1.00;;;;;;4996472;28;20045;-49
2023/01/11 00:21:33;;;;;;;9.83;6.67;;;9.70;1.00;;;;;;4996702;28;20105;-53
2023/01/11 00:23:58;;;;;;;10.30;6.67;;;9.70;1.00;;;;;;4996181;28;20464;-48
2023/01/11 00:26:24;;;;;;;12.47;6.97;;;9.80;1.00;;;;;;4996319;28;20023;-48
2023/01/11 00:28:51;;;;;;;10.83;6.67;;;9.80;1.00;;;;;;4996018;28;20030;-48
2023/01/11 00:31:17;;;;;;;9.60;6.43;;;9.80;1.00;;;;;;4996117;28;20026;-48
2023/01/11 00:33:42;;;;;;;10.40;6.70;;;9.70;1.00;;;;;;4996140;28;20067;-48
2023/01/11 00:36:08;;;;;;;12.43;6.17;;;9.60;1.00;;;;;;4996309;28;20113;-48
2023/01/11 00:38:43;;;;;;;13.07;6.53;;;9.70;1.00;;;;;;4996578;28;20030;-51
2023/01/11 00:49:24;;;;;;;7.25;4.80;;;9.70;1.00;;;;;;5015544;28;20091;-50
2023/01/11 00:51:49;;;;;;;10.57;6.07;;;9.70;1.00;;;;;;5015732;28;20038;-50
2023/01/11 00:54:15;;;;;;;11.63;6.43;;;9.60;1.00;;;;;;5015024;28;20022;-48
2023/01/11 00:56:41;;;;;;;10.77;7.07;;;9.70;1.00;;;;;;5015165;28;20029;-48
2023/01/11 00:59:07;;;;;;;12.70;6.70;;;9.70;1.00;;;;;;5015366;28;20020;-50
2023/01/11 01:01:33;;;;;;;9.43;6.37;;;9.70;1.00;;;;;;5015179;28;20018;-48
2023/01/11 01:04:02;;;;;;;10.13;6.90;;;9.70;1.00;;;;;;5015130;28;20391;-54
2023/01/11 01:06:28;;;;;;;14.00;7.17;;;9.80;1.00;;;;;;5015364;28;20033;-48
2023/01/11 01:08:54;;;;;;;11.57;6.53;;;9.70;1.00;;;;;;5014351;28;20030;-49
2023/01/11 01:11:20;;;;;;;14.77;7.37;;;9.60;1.00;;;;;;5002176;28;20037;-48
2023/01/11 01:16:31;;;;;;;13.23;6.97;;;9.70;1.00;;;;;;5002881;28;20068;-51
2023/01/11 01:18:57;;;;;;;11.67;7.53;;;9.70;1.00;;;;;;5001726;28;20751;-50
2023/01/11 01:21:24;;;;;;;12.07;7.30;;;9.70;1.00;;;;;;5011075;28;20017;-50
2023/01/11 01:23:56;;;;;;;10.87;7.27;;;9.70;1.00;;;;;;4997329;28;20026;-48
2023/01/11 01:26:22;;;;;;;11.23;6.73;;;9.60;1.00;;;;;;4995295;28;20476;-52
2023/01/11 01:28:51;;;;;;;10.97;6.47;;;9.60;1.00;;;;;;4994003;28;20033;-50
2023/01/11 01:31:16;;;;;;;21.40;7.20;;;9.60;1.00;;;;;;4995008;28;20491;-48
2023/01/11 01:33:42;;;;;;;12.67;6.70;;;9.50;1.00;;;;;;4995117;28;20026;-48
2023/01/11 01:36:08;;;;;;;14.27;6.43;;;9.60;1.00;;;;;;4994955;28;20102;-48
2023/01/11 01:38:34;;;;;;;8.37;6.27;;;9.60;1.00;;;;;;4995291;28;20105;-52
2023/01/11 01:41:00;;;;;;;12.23;6.43;;;9.50;1.00;;;;;;4995270;28;20117;-51
2023/01/11 01:43:47;;;;;;;10.47;6.53;;;9.50;1.00;;;;;;4994630;28;20014;-51
2023/01/11 01:46:13;;;;;;;10.47;6.73;;;9.50;1.00;;;;;;4995052;28;20030;-49
2023/01/11 01:48:42;;;;;;;9.93;6.37;;;9.60;1.00;;;;;;5005861;28;20055;-49
2023/01/11 01:51:12;;;;;;;11.90;6.53;;;9.50;1.00;;;;;;5006975;28;20034;-52
2023/01/11 01:53:42;;;;;;;9.80;6.47;;;9.50;1.00;;;;;;5000465;28;20040;-49
2023/01/11 01:56:33;;;;;;;10.33;6.70;;;9.60;1.00;;;;;;4983377;28;20106;-53
2023/01/11 01:59:07;;;;;;;8.73;6.53;;;9.50;1.00;;;;;;4994506;28;20355;-52
2023/01/11 02:01:48;;;;;;;11.52;6.53;;;9.60;1.00;;;;;;4994702;28;20022;-50
2023/01/11 02:04:23;;;;;;;18.47;6.70;;;9.50;1.00;;;;;;5004165;28;20726;-51
2023/01/11 02:06:51;;;;;;;7.72;5.68;;;9.50;1.00;;;;;;4997255;28;20030;-49
2023/01/11 02:09:23;;;;;;;10.23;6.07;;;9.50;1.00;;;;;;4993664;28;20026;-49
2023/01/11 02:11:51;;;;;;;9.57;6.27;;;9.50;1.00;;;;;;4994951;28;20468;-50
2023/01/11 02:14:18;;;;;;;9.63;6.33;;;9.50;1.00;;;;;;5004462;28;20122;-51
2023/01/11 02:16:44;;;;;;;10.70;6.00;;;9.50;1.00;;;;;;4992890;28;20057;-49
2023/01/11 02:19:25;;;;;;;10.90;6.00;;;9.50;1.00;;;;;;4993068;28;20066;-50
2023/01/11 02:22:11;;;;;;;9.40;6.43;;;9.60;1.00;;;;;;4994511;28;20376;-53
2023/01/11 02:25:15;;;;;;;8.63;6.37;;;9.50;1.00;;;;;;4993507;28;20033;-50
2023/01/11 02:28:15;;;;;;;8.90;6.20;;;9.50;1.00;;;;;;4993564;28;20022;-51
2023/01/11 02:31:12;;;;;;;8.50;6.40;;;9.50;1.00;;;;;;5007342;28;20065;-51
2023/01/11 02:33:47;;;;;;;10.03;6.37;;;9.50;1.00;;;;;;4984124;28;20031;-49
2023/01/11 02:36:21;;;;;;;;;;;9.50;1.00;;;;;;4993957;28;20121;-50
2023/01/11 02:39:15;;;;;;;11.90;6.83;;;9.50;1.00;;;;;;4995195;28;19909;-49
2023/01/11 02:45:00;;;;;;;12.70;7.27;;;9.50;1.00;;;;;;5013644;28;20505;-50
2023/01/11 02:47:45;;;;;;;12.10;7.60;;;9.50;1.00;;;;;;5008745;28;20042;-50
2023/01/11 02:50:48;;;;;;;11.13;7.43;;;9.50;1.00;;;;;;5006675;28;20053;-49
2023/01/11 02:53:46;;;;;;;11.27;6.50;;;9.50;1.00;;;;;;5004314;28;20095;-49
2023/01/11 02:56:23;;;;;;;13.20;6.70;;;9.40;1.00;;;;;;4997866;28;20438;-49
2023/01/11 02:58:51;;;;;;;12.47;7.37;;;9.50;1.00;;;;;;4998858;28;20418;-54
2023/01/11 03:01:21;;;;;;;10.57;7.40;;;9.50;1.00;;;;;;4996808;28;20030;-48
2023/01/11 03:03:47;;;;;;;10.20;6.80;;;9.50;1.00;;;;;;5013382;28;20021;-50
2023/01/11 03:06:19;;;;;;;10.67;7.27;;;9.50;1.00;;;;;;5006231;28;20030;-47
2023/01/11 03:09:20;;;;;;;11.63;6.90;;;9.50;1.00;;;;;;5013741;28;20455;-47
2023/01/11 03:15:08;;;;;;;12.83;6.83;;;9.50;1.00;;;;;;5000449;28;20057;-49
2023/01/11 03:17:56;;;;;;;11.23;6.47;;;9.50;1.00;;;;;;4999219;28;20045;-48
2023/01/11 03:20:33;;;;;;;8.97;6.23;;;9.50;1.00;;;;;;5003009;28;20018;-50
2023/01/11 03:23:15;;;;;;;7.10;5.40;;;9.50;1.00;;;;;;5007645;28;20364;-49
2023/01/11 03:25:56;;;;;;;9.13;6.53;;;9.40;1.00;;;;;;5005492;28;20030;-49
2023/01/11 03:28:41;;;;;;;8.40;6.20;;;9.40;1.00;;;;;;4993437;28;20472;-49
2023/01/11 03:31:29;;;;;;;9.27;6.00;;;9.40;1.00;;;;;;5007369;28;20116;-49
2023/01/11 03:34:32;;;;;;;9.27;6.27;;;9.50;1.00;;;;;;5013127;28;20026;-52
2023/01/11 03:37:04;;;;;;;7.60;5.80;;;9.40;1.00;;;;;;5006714;28;20369;-50
2023/01/11 03:39:41;;;;;;;6.90;5.10;;;9.40;1.00;;;;;;4988978;28;20503;-49
2023/01/11 03:42:10;;;;;;;6.97;5.03;;;9.40;1.00;;;;;;5006382;28;20046;-50
2023/01/11 03:44:42;;;;;;;6.23;4.90;;;9.40;1.00;;;;;;5006418;28;20033;-50
2023/01/11 03:47:11;;;;;;;5.73;4.07;;;9.40;1.00;;;;;;4988344;28;20100;-50
2023/01/11 03:49:50;;;;;;;6.13;5.13;;;9.50;1.00;;;;;;4983508;28;20074;-52
2023/01/11 03:52:19;;;;;;;7.40;4.47;;;9.50;1.00;;;;;;4990464;28;20050;-51
2023/01/11 03:54:46;;;;;;;6.53;4.10;;;9.50;1.00;;;;;;4990188;28;20026;-52
2023/01/11 03:57:24;;;;;;;7.23;4.20;;;9.50;1.00;;;;;;4983167;28;20026;-50
2023/01/11 03:59:50;;;;;;;6.40;4.70;;;9.40;1.00;;;;;;4984465;28;20078;-48
2023/01/11 04:02:24;;;;;;;6.73;3.87;;;9.40;1.00;;;;;;4991105;28;20063;-50
2023/01/11 04:04:50;;;;;;;7.50;4.38;;;9.30;1.00;;;;;;4989305;28;20050;-50
2023/01/11 04:07:17;;;;;;;5.40;3.97;;;9.40;1.00;;;;;;4995793;28;20096;-50
2023/01/11 04:09:43;;;;;;;5.23;4.13;;;9.40;1.00;;;;;;4970343;28;20027;-50
2023/01/11 04:12:09;;;;;;;5.63;4.43;;;9.40;1.00;;;;;;4990932;28;20045;-48
2023/01/11 04:14:50;;;;;;;4.00;3.47;;;9.40;1.00;;;;;;4984291;28;20102;-50
2023/01/11 04:17:16;;;;;;;5.67;3.60;;;9.30;1.00;;;;;;4983006;28;20027;-48
2023/01/11 04:19:43;;;;;;;4.83;3.90;;;9.30;1.00;;;;;;4976152;28;20475;-51
2023/01/11 04:22:09;;;;;;;8.37;4.40;;;9.40;1.00;;;;;;4977006;28;20058;-53
2023/01/11 04:24:34;;;;;;;6.80;4.43;;;9.30;1.00;;;;;;4990524;28;20116;-51
2023/01/11 04:27:00;;;;;;;7.83;4.57;;;9.20;1.00;;;;;;4988415;28;20061;-52
2023/01/11 04:29:26;;;;;;;6.63;4.23;;;9.30;1.00;;;;;;4965201;28;20029;-51
2023/01/11 04:31:51;;;;;;;7.20;5.33;;;9.30;1.00;;;;;;4987303;28;20097;-50
2023/01/11 04:34:17;;;;;;;5.77;4.30;;;9.30;1.00;;;;;;4990607;28;20022;-48
2023/01/11 04:36:42;;;;;;;8.77;4.83;;;9.30;1.00;;;;;;4985920;28;20031;-51
2023/01/11 04:39:09;;;;;;;12.67;5.57;;;9.30;1.00;;;;;;4990030;28;20022;-53
2023/01/11 04:44:21;;;;;;;6.47;4.20;;;9.30;1.00;;;;;;4994906;28;20062;-53
2023/01/11 04:46:47;;;;;;;5.73;4.50;;;9.20;1.00;;;;;;4984773;28;20084;-50
2023/01/11 04:49:13;;;;;;;6.50;4.40;;;9.20;1.00;;;;;;5003453;28;20105;-49
2023/01/11 04:51:39;;;;;;;7.53;4.53;;;9.30;1.00;;;;;;5009785;28;20122;-50
2023/01/11 04:54:05;;;;;;;5.93;4.17;;;9.20;1.00;;;;;;5005782;28;20054;-48
2023/01/11 04:56:31;;;;;;;7.10;4.20;;;9.20;1.00;;;;;;4983748;28;20034;-51
2023/01/11 04:58:56;;;;;;;6.43;4.20;;;9.20;1.00;;;;;;5007446;28;20026;-50
2023/01/11 05:01:22;;;;;;;7.47;4.40;;;9.30;1.00;;;;;;5009277;28;20025;-50
2023/01/11 05:03:48;;;;;;;4.77;3.50;;;9.20;1.00;;;;;;4997883;28;20176;-49
2023/01/11 05:06:14;;;;;;;4.87;3.67;;;9.30;1.00;;;;;;5007769;28;20487;-50
2023/01/11 05:08:48;;;;;;;7.13;3.77;;;9.20;1.00;;;;;;5001344;28;20037;-50
2023/01/11 05:11:26;;;;;;;7.17;4.20;;;9.20;1.00;;;;;;5007864;28;20105;-50
2023/01/11 05:13:51;;;;;;;5.00;3.70;;;9.20;1.00;;;;;;5001170;28;20038;-49
2023/01/11 05:16:20;;;;;;;7.67;3.90;;;9.20;1.00;;;;;;4997533;28;20502;-50
2023/01/11 05:18:49;;;;;;;7.07;4.03;;;9.20;1.00;;;;;;5001915;28;20030;-50
2023/01/11 05:21:17;;;;;;;7.93;4.27;;;9.20;1.00;;;;;;5001358;28;20045;-50
2023/01/11 05:23:43;;;;;;;7.17;3.67;;;9.10;1.00;;;;;;5003001;28;20027;-49
2023/01/11 05:26:12;;;;;;;6.37;3.90;;;9.10;1.00;;;;;;5008881;28;20022;-50
2023/01/11 05:28:38;;;;;;;6.77;3.90;;;9.20;1.00;;;;;;5006099;28;20108;-51
2023/01/11 05:31:04;;;;;;;4.47;3.27;;;9.20;1.00;;;;;;5001315;28;20044;-53
2023/01/11 05:33:30;;;;;;;6.87;3.60;;;9.20;1.00;;;;;;5005812;28;20093;-49
2023/01/11 05:39:17;;;;;;;5.50;3.40;;;9.10;1.00;;;;;;5006205;28;20079;-55
2023/01/11 05:41:43;;;;;;;5.30;3.27;;;9.10;1.00;;;;;;5008163;28;20097;-51
2023/01/11 05:46:57;;;;;;;5.90;3.70;;;9.10;1.00;;;;;;5004369;28;20499;-49
2023/01/11 05:49:23;;;;;;;7.40;3.13;;;9.10;1.00;;;;;;4987002;28;20018;-52
2023/01/11 05:51:49;;;;;;;4.60;2.60;;;9.10;1.00;;;;;;4988482;28;20342;-52
2023/01/11 05:54:16;;;;;;;6.13;3.20;;;9.10;1.00;;;;;;4988970;28;20494;-51
2023/01/11 05:56:42;;;;;;;5.77;3.27;;;9.10;1.00;;;;;;4975644;28;20028;-48
2023/01/11 05:59:09;;;;;;;3.80;3.20;;;9.10;1.00;;;;;;4990182;28;20101;-49
2023/01/11 06:01:36;;;;;;;7.80;2.80;;;9.10;1.00;;;;;;4975233;28;20037;-49
2023/01/11 06:04:02;;;;;;;5.13;3.17;;;9.10;1.00;;;;;;4988869;28;20365;-50
2023/01/11 06:06:27;;;;;;;5.17;3.13;;;9.00;1.00;;;;;;4986502;28;20038;-50
2023/01/11 06:08:53;;;;;;;10.67;4.70;;;9.00;1.00;;;;;;4976115;28;20080;-49
2023/01/11 06:11:18;;;;;;;11.73;6.10;;;9.00;1.00;;;;;;4974404;28;20496;-49
2023/01/11 06:13:44;;;;;;;11.77;5.57;;;9.10;1.00;;;;;;4974578;28;20035;-51
2023/01/11 06:16:17;;;;;;;13.10;6.57;;;9.10;1.00;;;;;;4976948;28;20070;-49
2023/01/11 06:18:45;;;;;;;10.43;6.70;;;9.00;1.00;;;;;;4974795;28;20031;-51
2023/01/11 06:21:12;;;;;;;7.53;5.73;;;9.00;1.00;;;;;;4976734;28;20019;-51
2023/01/11 06:23:41;;;;;;;12.03;6.63;;;9.00;1.00;;;;;;4976046;28;20488;-51
2023/01/11 06:26:09;;;;;;;11.90;6.40;;;9.00;1.00;;;;;;4974734;28;20035;-50
2023/01/11 06:28:36;;;;;;;9.37;6.03;;;9.00;1.00;;;;;;4994076;28;20093;-51
2023/01/11 06:31:03;;;;;;;12.07;6.97;;;8.90;1.00;;;;;;4980939;28;20542;-49
2023/01/11 06:33:29;;;;;;;14.50;7.17;;;8.90;1.00;;;;;;4974400;28;20031;-49
2023/01/11 06:35:55;;;;;;;10.57;5.60;;;8.90;1.00;;;;;;4974596;28;20027;-52
2023/01/11 06:38:23;;;;;;;12.83;6.13;;;8.90;1.00;;;;;;4974544;28;20027;-52
2023/01/11 06:40:57;;;;;;;8.33;6.03;;;8.90;1.00;;;;;;4989576;28;20023;-50
2023/01/11 06:43:24;;;;;;;10.02;6.07;;;8.80;1.00;;;;;;4974538;28;20031;-48
2023/01/11 06:45:50;;;;;;;7.63;5.70;;;8.80;1.00;;;;;;4974689;28;20037;-52
2023/01/11 06:48:17;;;;;;;10.53;5.93;;;8.80;1.00;;;;;;5002204;28;20045;-50
2023/01/11 06:50:46;;;;;;;9.80;6.10;;;8.80;1.00;;;;;;5006958;28;20029;-54
2023/01/11 06:53:11;;;;;;;10.00;6.00;;;8.80;1.00;;;;;;5007032;28;20113;-50
2023/01/11 06:55:37;;;;;;;7.97;5.83;;;8.80;1.00;;;;;;5013179;28;20479;-49
2023/01/11 06:58:03;;;;;;;9.93;6.10;;;8.80;1.00;;;;;;5013531;28;20033;-54
2023/01/11 07:00:28;;;;;;;9.20;6.33;;;8.80;1.00;;;;;;5013228;28;20456;-52
2023/01/11 07:02:54;;;;;;;7.17;5.63;;;8.80;1.00;;;;;;4995681;28;20479;-52
2023/01/11 07:05:20;;;;;;;11.70;5.87;;;8.70;1.00;;;;;;5013094;28;20053;-52
2023/01/11 07:07:45;;;;;;;10.50;5.63;;;8.80;1.00;;;;;;4995695;28;20022;-49
2023/01/11 07:10:14;;;;;;;12.17;5.70;;;8.80;1.00;;;;;;5013361;28;20030;-53
2023/01/11 07:12:40;;;;;;;9.70;6.07;;;8.70;1.00;;;;;;5013105;28;20077;-51
2023/01/11 07:15:08;;;;;;;10.57;6.07;;;8.80;1.00;;;;;;5013256;28;20066;-56
2023/01/11 07:17:33;;;;;;;11.57;5.57;;;8.80;1.00;;;;;;5013043;28;20029;-53
2023/01/11 07:19:59;;;;;;;9.90;5.93;;;8.80;1.00;;;;;;5012949;28;20026;-52
2023/01/11 07:22:25;;;;;;;10.80;6.10;;;8.90;1.00;;;;;;5013262;28;20026;-50
2023/01/11 07:24:51;;;;;;;7.70;5.73;;;8.80;1.00;;;;;;5017151;28;20379;-53
2023/01/11 07:27:19;;;;;;;8.17;5.70;;;8.90;1.00;;;;;;5017144;28;20056;-52
2023/01/11 07:29:45;;;;;;;12.83;8.70;;;8.90;1.00;;;;;;4996197;28;20076;-53
2023/01/11 07:32:10;;;;;;;14.63;6.37;;;8.90;1.00;;;;;;5008433;28;20038;-55
2023/01/11 07:34:36;;;;;;;12.30;6.37;;;8.90;1.00;;;;;;5016967;28;20088;-53
2023/01/11 07:37:02;;;;;;;12.00;5.33;;;9.00;1.00;;;;;;5016981;28;20030;-52
2023/01/11 07:39:28;;;;;;;11.67;6.43;;;9.00;1.00;;;;;;5016906;28;20057;-55
2023/01/11 07:44:38;;;;;;;11.20;6.20;;;9.10;1.00;;;;;;5016993;28;20092;-52
2023/01/11 07:47:04;;;;;;;10.07;5.83;;;9.10;1.00;;;;;;5016648;28;20046;-52
2023/01/11 07:49:30;;;;;;;9.10;4.80;;;9.10;1.00;;;;;;4989695;28;20027;-53
2023/01/11 07:51:56;;;;;;;8.87;5.60;;;9.10;1.00;;;;;;4977440;28;20085;-52
2023/01/11 07:54:23;;;;;;;7.90;4.30;;;9.20;1.00;;;;;;4984482;28;20022;-53
2023/01/11 07:56:49;;;;;;;9.37;4.07;;;9.10;1.00;;;;;;4987849;28;20031;-52
2023/01/11 07:59:15;;;;;;;7.97;4.83;;;9.20;1.00;;;;;;4994210;28;20061;-50
2023/01/11 08:01:41;;;;;;;9.77;4.20;;;9.30;1.00;;;;;;4992776;28;20460;-49
2023/01/11 08:04:10;;;;;;;9.60;4.83;;;9.30;1.00;;;;;;4981245;28;20026;-48
2023/01/11 08:06:36;;;;;;;9.40;5.10;;;9.30;1.00;;;;;;4986033;28;20164;-54
2023/01/11 08:09:02;;;;;;;7.57;4.87;;;9.30;1.00;;;;;;4992801;28;20113;-53
2023/01/11 08:16:56;;;;;;;10.33;4.33;;;9.40;1.00;;;;;;4992929;28;20114;-50
2023/01/11 08:19:22;;;;;;;9.53;4.43;;;9.50;1.00;;;;;;4988723;28;20050;-51
2023/01/11 08:22:04;;;;;;;7.20;4.03;;;9.50;1.00;;;;;;4993908;28;20030;-49
2023/01/11 08:24:30;;;;;;;10.73;4.60;;;9.60;1.00;;;;;;4991258;28;20085;-50
2023/01/11 08:26:56;;;;;;;10.40;4.43;;;9.60;1.00;;;;;;4976401;28;20031;-52
2023/01/11 08:29:23;;;;;;;10.27;4.57;;;9.60;1.00;;;;;;4976944;28;20030;-51
2023/01/11 08:31:49;;;;;;;10.30;5.03;;;9.70;1.00;;;;;;4976614;28;20085;-52
2023/01/11 08:34:14;;;;;;;9.83;4.93;;;9.70;1.00;;;;;;4976605;28;20031;-47
2023/01/11 08:36:40;;;;;;;12.97;5.00;;;9.70;1.00;;;;;;4975188;28;20026;-48
2023/01/11 08:39:07;;;;;;;7.00;4.67;;;9.80;1.00;;;;;;4976869;28;20046;-50
2023/01/11 08:41:33;;;;;;;16.23;5.97;;;9.80;1.00;;;;;;4977010;28;20023;-54
2023/01/11 08:43:58;;;;;;;14.70;5.70;;;9.90;1.00;;;;;;4977751;28;20050;-51
2023/01/11 08:46:24;;;;;;;11.63;6.07;;;9.90;1.00;;;;;;4985286;28;20491;-48
2023/01/11 08:48:52;;;;;;;13.67;5.80;;;9.90;1.00;;;;;;5013577;28;20081;-48
2023/01/11 08:51:18;;;;;;;12.03;5.60;;;9.90;1.00;;;;;;5015456;28;20113;-48
2023/01/11 08:53:43;;;;;;;14.63;6.07;;;10.00;1.00;;;;;;4997838;28;20491;-52
2023/01/11 08:56:09;;;;;;;14.83;6.20;;;10.00;1.00;;;;;;5015489;28;20109;-48
2023/01/11 08:58:35;;;;;;;14.07;5.60;;;10.00;1.00;;;;;;5015496;28;20033;-50
2023/01/11 09:01:02;;;;;;;9.90;5.83;;;10.00;1.00;;;;;;5015464;28;20041;-50
2023/01/11 09:03:29;;;;;;;11.33;6.63;;;10.00;1.00;;;;;;5015162;28;20061;-51
2023/01/11 09:05:58;;;;;;;10.90;5.47;;;10.00;1.00;;;;;;5015206;28;20034;-49
2023/01/11 09:08:25;;;;;;;10.87;5.97;;;10.10;1.00;;;;;;5015213;28;20025;-50
2023/01/11 09:10:51;;;;;;;10.73;5.63;;;10.00;1.00;;;;;;5014928;28;20533;-50
2023/01/11 09:13:16;;;;;;;9.03;5.20;;;10.00;1.00;;;;;;5015018;28;20033;-49
2023/01/11 09:15:45;;;;;;;11.63;5.30;;;9.90;1.00;;;;;;5014908;28;20069;-48
2023/01/11 09:18:11;;;;;;;12.43;5.13;;;10.00;1.00;;;;;;5015098;28;20030;-51
2023/01/11 09:20:37;;;;;;;22.43;6.63;;;10.10;1.00;;;;;;5015102;28;20109;-49
2023/01/11 09:23:03;;;;;;;10.37;5.07;;;10.20;1.00;;;;;;5005793;28;20101;-51
2023/01/11 09:25:28;;;;;;;8.37;5.00;;;10.10;1.00;;;;;;4993897;28;20571;-51
2023/01/11 09:27:54;;;;;;;11.97;6.10;;;10.20;1.00;;;;;;5012896;28;20037;-49
2023/01/11 09:30:22;;;;;;;11.83;5.90;;;10.30;1.00;;;;;;5001425;28;20073;-51
2023/01/11 09:32:49;;;;;;;19.43;7.23;;;10.30;1.00;;;;;;4995288;28;20038;-52
2023/01/11 09:35:15;;;;;;;12.63;6.80;;;10.10;1.00;;;;;;4995242;28;20038;-53
2023/01/11 09:37:58;;;;;;;10.87;7.07;;;10.30;1.00;;;;;;4995228;28;20030;-51
2023/01/11 09:40:44;;;;;;;12.13;6.37;;;10.50;1.00;;;;;;4995098;28;20022;-51
2023/01/11 09:43:13;;;;;;;18.80;7.40;;;10.50;1.00;;;;;;5014687;28;20494;-50
2023/01/11 09:45:45;;;;;;;13.53;6.80;;;10.60;1.00;;;;;;5000936;28;20069;-53
2023/01/11 09:48:27;;;;;;;16.93;6.77;;;10.50;1.00;;;;;;4993970;28;20049;-50
2023/01/11 09:50:54;;;;;;;11.17;6.47;;;10.60;1.00;;;;;;4994871;28;20073;-52
2023/01/11 09:53:30;;;;;;;14.53;7.67;;;10.70;1.00;;;;;;4994799;28;20122;-52
2023/01/11 09:55:59;;;;;;;10.20;6.63;;;10.80;1.00;;;;;;4994696;28;20109;-51
2023/01/11 09:58:37;;;;;;;10.63;5.77;;;10.80;1.00;;;;;;4994617;28;20121;-52
2023/01/11 10:01:20;;;;;;;13.97;6.73;;;10.80;1.00;;;;;;4961206;28;20086;-52
2023/01/11 10:03:57;;;;;;;13.30;6.47;;;10.90;1.00;;;;;;4989866;28;20030;-52
2023/01/11 10:06:51;;;;;;;13.73;6.40;;;11.00;1.00;;;;;;4994662;28;20039;-65
2023/01/11 10:09:43;;;;;;;14.60;6.37;;;10.80;1.00;;;;;;5090594;27;20425;-58
2023/01/11 10:12:09;;;;;;;13.80;6.77;;;10.90;1.00;;;;;;5083912;28;20035;-59
2023/01/11 10:14:58;;;;;;;14.10;7.03;;;11.00;1.00;;;;;;5088903;28;20032;-50
2023/01/11 10:17:48;;;;;;;10.47;5.90;;;11.00;1.00;;;;;;5089243;28;20388;-50
2023/01/11 10:20:26;;;;;;;10.77;7.17;;;11.00;1.00;;;;;;5081729;28;20009;-58
2023/01/11 10:23:06;;;;;;;10.45;5.88;;;11.10;1.00;;;;;;5087571;28;20139;-59
2023/01/11 10:25:41;;;;;;;10.45;6.35;;;11.10;1.00;;;;;;5090412;28;20046;-60
2023/01/11 10:28:20;;;;;;;17.20;7.13;;;11.10;1.00;;;;;;5086232;28;20123;-46
2023/01/11 10:31:06;;;;;;;8.93;6.13;;;11.10;1.00;;;;;;5090265;28;20021;-46
2023/01/11 10:34:35;;;;;;;8.83;6.87;;;11.30;1.00;;;;;;5090253;28;20508;-45
2023/01/11 10:37:11;;;;;;;15.00;6.90;;;11.40;1.00;;;;;;5078175;28;20028;-46
2023/01/11 10:40:05;;;;;;;10.88;5.95;;;11.40;1.00;;;;;;5076163;28;20030;-47
2023/01/11 10:42:42;;;;;;;9.93;5.93;;;11.50;1.00;;;;;;5090125;28;20017;-44
2023/01/11 10:45:19;;;;;;;15.90;6.33;;;11.60;1.00;;;;;;5090090;28;20039;-45
2023/01/11 10:48:07;;;;;;;7.80;5.60;;;11.60;1.00;;;;;;5089887;28;20028;-46
2023/01/11 10:54:37;;;;;;;10.52;6.00;;;11.80;1.00;;;;;;5056392;28;20517;-46
2023/01/11 10:57:24;;;;;;;11.80;6.32;;;11.80;1.00;;;;;;5078833;28;20381;-45
2023/01/11 11:00:30;;;;;;;10.60;6.72;;;11.80;1.00;;;;;;5088457;28;20028;-45
2023/01/11 11:03:13;;;;;;;11.88;6.82;;;11.80;1.00;;;;;;5089682;28;20539;-45
2023/01/11 11:05:55;;;;;;;11.23;6.88;;;11.80;1.00;;;;;;5089949;28;20032;-45
2023/01/11 11:08:51;;;;;;;11.68;7.60;;;11.90;1.00;;;;;;5089285;28;20493;-45
2023/01/11 11:11:41;;;;;;;12.27;6.78;;;11.90;1.00;;;;;;5089445;28;20021;-47
2023/01/11 11:14:22;;;;;;;8.93;6.30;;;11.90;1.00;;;;;;5089303;28;20036;-45
2023/01/11 11:17:25;;;;;;;8.05;5.82;;;11.80;1.00;;;;;;5088652;28;20027;-45
2023/01/11 11:19:52;;;;;;;9.85;6.15;;;11.90;1.00;;;;;;5057185;28;20037;-47
2023/01/11 11:22:19;;;;;;;11.13;5.95;;;11.90;1.00;;;;;;5076012;28;20373;-45
2023/01/11 11:24:52;;;;;;;13.55;8.32;;;11.90;1.00;;;;;;5065469;28;20017;-48
2023/01/11 11:27:20;;;;;;;18.90;10.77;;;12.00;1.00;;;;;;5060336;28;20024;-45
2023/01/11 11:29:52;;;;;;;14.20;8.55;;;11.90;1.00;;;;;;5075738;28;20394;-45
2023/01/11 11:32:19;;;;;;;14.10;7.68;;;12.00;1.00;;;;;;5067457;28;20428;-44
2023/01/11 11:34:47;;;;;;;15.30;8.02;;;11.80;1.00;;;;;;5075551;28;20103;-49
2023/01/11 11:37:22;;;;;;;12.73;6.93;;;11.90;1.00;;;;;;5075530;28;20029;-52
2023/01/11 11:39:50;;;;;;;13.55;8.60;;;12.00;1.00;;;;;;5076305;28;20028;-48
2023/01/11 11:42:17;;;;;;;11.85;6.90;;;12.00;1.00;;;;;;5075586;28;20373;-49
2023/01/11 11:44:42;;;;;;;13.48;6.93;;;11.90;1.00;;;;;;5075419;28;20082;-46
2023/01/11 11:47:15;;;;;;;15.50;7.00;;;11.90;1.00;;;;;;5075295;28;20025;-45
2023/01/11 11:49:41;;;;;;;12.38;7.20;;;11.90;1.00;;;;;;5075124;28;20036;-45
2023/01/11 11:52:12;;;;;;;16.80;7.95;;;12.00;1.00;;;;;;5067436;28;20024;-46
2023/01/11 11:54:52;;;;;;;14.63;9.32;;;12.10;1.00;;;;;;5061424;28;20020;-45
2023/01/11 11:57:27;;;;;;;14.40;7.45;;;12.10;1.00;;;;;;5065343;28;20032;-45
2023/01/11 12:00:02;;;;;;;13.90;6.93;;;12.00;1.00;;;;;;5075270;28;20104;-49
2023/01/11 12:02:31;;;;;;;11.52;8.20;;;12.10;1.00;;;;;;5074761;28;20025;-46
2023/01/11 12:05:00;;;;;;;12.27;7.35;;;12.10;1.00;;;;;;5075273;28;20020;-49
2023/01/11 12:07:42;;;;;;;10.63;6.78;;;12.10;1.00;;;;;;5074768;28;20044;-45
2023/01/11 12:10:13;;;;;;;13.23;8.73;;;12.10;1.00;;;;;;5075115;28;20027;-46
2023/01/11 12:12:58;;;;;;;14.65;8.57;;;12.10;1.00;;;;;;5074770;28;20036;-49
2023/01/11 12:15:27;;;;;;;15.18;8.30;;;12.20;1.00;;;;;;5074885;28;20024;-46
2023/01/11 12:17:54;;;;;;;12.30;7.57;;;12.10;1.00;;;;;;5074638;28;20027;-45
2023/01/11 12:20:22;;;;;;;13.07;7.82;;;12.10;1.00;;;;;;5074792;28;20025;-45
2023/01/11 12:22:49;;;;;;;14.68;7.78;;;11.80;1.00;;;;;;5074812;28;20031;-48
2023/01/11 12:25:24;;;;;;;12.65;7.95;;;12.00;1.00;;;;;;5074764;28;20033;-44
2023/01/11 12:28:05;;;;;;;16.10;8.07;;;12.10;1.00;;;;;;5074543;28;20031;-45
2023/01/11 12:30:49;;;;;;;12.48;7.50;;;12.10;1.00;;;;;;5073956;28;20028;-45
2023/01/11 12:33:23;;;;;;;13.43;7.60;;;12.10;1.00;;;;;;5073034;28;20025;-47
2023/01/11 12:36:10;;;;;;;15.30;8.18;;;12.10;1.00;;;;;;5074740;28;20382;-45
2023/01/11 12:38:46;;;;;;;12.55;8.15;;;12.20;1.00;;;;;;5074513;28;20036;-45
2023/01/11 12:41:42;;;;;;;12.75;8.27;;;12.20;1.00;;;;;;5074372;28;20062;-45
2023/01/11 12:44:31;;;;;;;12.20;7.88;;;12.20;1.00;;;;;;5074057;28;20104;-44
2023/01/11 12:46:56;;;;;;;10.90;7.78;;;12.10;1.00;;;;;;5074246;28;20035;-44
2023/01/11 12:49:45;;;;;;;13.57;9.43;;;12.20;1.00;;;;;;5073888;28;20389;-45
2023/01/11 12:52:16;;;;;;;11.60;9.15;;;12.30;1.00;;;;;;5074139;28;20031;-44
2023/01/11 12:55:11;;;;;;;14.13;8.07;;;12.20;1.00;;;;;;5059452;28;20466;-45
2023/01/11 12:58:00;;;;;;;13.20;8.25;;;12.20;1.00;;;;;;5074219;28;20382;-47
2023/01/11 13:00:42;;;;;;;17.23;8.93;;;12.10;1.00;;;;;;5074040;28;20028;-47
2023/01/11 13:03:08;;;;;;;11.52;7.88;;;12.10;1.00;;;;;;5060027;28;20020;-45
2023/01/11 13:05:33;;;;;;;15.95;8.82;;;12.20;1.00;;;;;;5073811;28;20355;-50
2023/01/11 13:08:40;;;;;;;17.85;10.02;;;12.30;1.00;;;;;;5073444;28;20402;-45
2023/01/11 13:11:09;;;;;;;12.68;8.48;;;12.20;1.00;;;;;;5029866;28;20033;-47
2023/01/11 13:13:42;;;;;;;15.77;8.90;;;12.20;1.00;;;;;;5072379;28;20047;-46
2023/01/11 13:16:27;;;;;;;13.75;8.98;;;12.20;1.00;;;;;;5073585;28;20070;-45
2023/01/11 13:19:08;;;;;;;17.30;9.13;;;12.30;1.00;;;;;;5073883;28;20017;-44
2023/01/11 13:21:54;;;;;;;12.75;9.02;;;12.30;1.00;;;;;;5073478;28;20013;-45
2023/01/11 13:24:28;;;;;;;12.43;8.93;;;12.30;1.00;;;;;;5073780;28;20025;-44
2023/01/11 13:27:03;;;;;;;16.88;10.30;;;12.30;1.00;;;;;;5073722;28;20016;-49
2023/01/11 13:29:36;;;;;;;16.20;9.75;;;12.30;1.00;;;;;;5073484;28;20024;-46
2023/01/11 13:32:10;;;;;;;13.13;10.07;;;12.30;1.00;;;;;;5073539;28;20382;-45
2023/01/11 13:34:58;;;;;;;17.33;9.52;;;12.30;1.00;;;;;;5073514;28;20054;-45
2023/01/11 13:37:40;;;;;;;13.18;8.88;;;12.40;1.00;;;;;;5073130;28;20425;-45
2023/01/11 13:40:17;;;;;;;14.02;9.73;;;12.40;1.00;;;;;;5073509;28;20507;-46
2023/01/11 13:42:48;;;;;;;15.55;9.35;;;12.40;1.00;;;;;;5059187;28;20013;-46
2023/01/11 13:45:23;;;;;;;13.90;9.60;;;12.40;1.00;;;;;;5073304;28;20024;-47
2023/01/11 13:48:00;;;;;;;15.13;9.85;;;12.20;1.00;;;;;;5059122;28;20029;-47
2023/01/11 13:50:40;;;;;;;14.52;9.43;;;12.30;1.00;;;;;;5073244;28;20020;-46
2023/01/11 13:53:30;;;;;;;16.77;9.43;;;12.30;1.00;;;;;;5060641;28;20024;-47
2023/01/11 13:56:05;;;;;;;15.07;9.80;;;12.40;1.00;;;;;;5073211;28;20107;-47
2023/01/11 13:58:54;;;;;;;14.60;9.50;;;12.50;1.00;;;;;;5073318;28;20020;-52
2023/01/11 14:01:52;;;;;;;13.25;9.93;;;12.40;1.00;;;;;;5073396;28;20021;-50
2023/01/11 14:04:33;;;;;;;16.88;10.18;;;12.50;1.00;;;;;;5062268;28;20051;-49